createdAt,value
2018-05-06T00:05:37.775Z,16.70
2018-05-06T00:10:42.269Z,16.60
2018-05-06T00:15:50.852Z,16.60
2018-05-06T00:20:56.336Z,16.50
2018-05-06T00:26:01.094Z,16.40
2018-05-06T00:31:04.627Z,16.40
2018-05-06T00:36:08.843Z,16.30
2018-05-06T00:41:11.812Z,16.30
2018-05-06T00:46:15.600Z,16.20
2018-05-06T00:51:20.071Z,16.10
2018-05-06T00:56:23.863Z,16.00
2018-05-06T01:01:28.435Z,15.90
2018-05-06T01:06:33.376Z,15.90
2018-05-06T01:11:40.759Z,15.80
2018-05-06T01:16:46.661Z,15.70
2018-05-06T01:21:50.312Z,15.60
2018-05-06T01:26:54.267Z,15.50
2018-05-06T01:31:59.083Z,15.50
2018-05-06T01:37:03.952Z,15.30
2018-05-06T01:47:16.095Z,15.20
2018-05-06T01:52:20.716Z,15.20
2018-05-06T01:57:24.136Z,15.10
2018-05-06T02:02:28.590Z,15.10
2018-05-06T02:07:32.023Z,15.00
2018-05-06T02:17:44.329Z,14.90
2018-05-06T02:22:49.061Z,14.80
2018-05-06T02:27:52.200Z,14.70
2018-05-06T02:32:58.429Z,14.60
2018-05-06T02:38:02.322Z,14.60
2018-05-06T02:43:07.611Z,14.50
2018-05-06T02:48:11.327Z,14.40
2018-05-06T02:53:15.960Z,14.40
2018-05-06T02:58:18.924Z,14.40
2018-05-06T03:03:22.326Z,14.30
2018-05-06T03:08:27.943Z,14.20
2018-05-06T03:13:31.786Z,14.20
2018-05-06T03:18:35.338Z,14.20
2018-05-06T03:23:40.349Z,14.10
2018-05-06T03:28:43.685Z,14.00
2018-05-06T03:33:48.103Z,13.90
2018-05-06T03:38:51.939Z,13.90
2018-05-06T03:43:58.602Z,13.90
2018-05-06T03:49:02.646Z,13.80
2018-05-06T03:54:09.731Z,13.70
2018-05-06T03:59:27.434Z,13.70
2018-05-06T04:04:34.637Z,13.70
2018-05-06T04:09:40.840Z,13.60
2018-05-06T04:14:46.665Z,13.60
2018-05-06T04:19:53.629Z,13.50
2018-05-06T04:24:57.638Z,13.50
2018-05-06T04:35:12.029Z,13.40
2018-05-06T04:40:19.177Z,13.40
2018-05-06T04:45:26.449Z,13.40
2018-05-06T04:50:32.627Z,13.40
2018-05-06T04:55:36.317Z,13.40
2018-05-06T05:00:39.421Z,13.40
2018-05-06T05:10:53.591Z,13.50
2018-05-06T05:16:00.135Z,13.60
2018-05-06T05:21:12.198Z,13.70
2018-05-06T05:26:17.268Z,13.80
2018-05-06T05:31:20.917Z,14.00
2018-05-06T05:36:30.438Z,14.20
2018-05-06T05:41:36.533Z,14.40
2018-05-06T05:46:43.438Z,14.60
2018-05-06T05:51:48.054Z,14.80
2018-05-06T05:56:52.746Z,15.10
2018-05-06T06:01:57.612Z,15.40
2018-05-06T06:07:04.184Z,16.00
2018-05-06T06:12:09.810Z,15.90
2018-05-06T06:17:16.026Z,16.20
2018-05-06T06:22:23.736Z,16.50
2018-05-06T06:27:31.067Z,16.90
2018-05-06T06:32:39.862Z,17.10
2018-05-06T06:42:58.765Z,17.70
2018-05-06T06:53:17.389Z,18.40
2018-05-06T06:58:23.425Z,18.70
2018-05-06T07:03:31.917Z,19.00
2018-05-06T07:08:37.823Z,19.30
2018-05-06T07:13:43.479Z,19.60
2018-05-06T07:18:51.636Z,20.00
2018-05-06T07:23:55.474Z,20.20
2018-05-06T07:29:03.610Z,20.50
2018-05-06T07:34:21.412Z,20.90
2018-05-06T07:39:33.910Z,21.10
2018-05-06T07:44:44.701Z,21.30
2018-05-06T07:49:54.792Z,21.60
2018-05-06T07:55:01.956Z,21.90
2018-05-06T08:00:06.752Z,22.20
2018-05-06T08:05:15.700Z,22.50
2018-05-06T08:15:55.299Z,22.90
2018-05-06T08:21:05.767Z,23.20
2018-05-06T08:26:15.261Z,23.40
2018-05-06T08:31:22.571Z,23.80
2018-05-06T08:41:48.554Z,24.20
2018-05-06T08:47:00.925Z,24.40
2018-05-06T08:52:10.167Z,24.60
2018-05-06T08:57:18.050Z,24.60
2018-05-06T09:02:25.813Z,25.00
2018-05-06T09:07:40.845Z,25.20
2018-05-06T09:13:00.910Z,25.40
2018-05-06T09:18:07.263Z,25.70
2018-05-06T09:23:18.652Z,25.80
2018-05-06T09:38:51.574Z,26.20
2018-05-06T09:43:59.002Z,26.20
2018-05-06T09:54:22.160Z,26.50
2018-05-06T09:59:45.524Z,26.60
2018-05-06T10:04:52.221Z,26.80
2018-05-06T10:10:05.130Z,26.90
2018-05-06T10:15:17.944Z,27.00
2018-05-06T10:25:31.788Z,27.30
2018-05-06T10:35:52.902Z,27.50
2018-05-06T10:40:58.147Z,27.50
2018-05-06T10:46:10.372Z,27.80
2018-05-06T10:51:16.311Z,27.80
2018-05-06T10:56:25.156Z,27.90
2018-05-06T11:01:32.259Z,28.00
2018-05-06T11:06:49.421Z,28.10
2018-05-06T11:27:32.610Z,28.50
2018-05-06T11:32:43.313Z,28.50
2018-05-06T11:37:53.471Z,28.50
2018-05-06T11:48:23.035Z,28.60
2018-05-06T11:53:39.154Z,28.70
2018-05-06T11:58:49.400Z,28.70
2018-05-06T12:03:54.268Z,28.80
2018-05-06T12:09:00.397Z,28.80
2018-05-06T12:14:05.996Z,28.90
2018-05-06T12:19:14.158Z,28.90
2018-05-06T12:24:38.057Z,28.90
2018-05-06T12:35:36.546Z,28.90
2018-05-06T12:40:51.597Z,28.80
2018-05-06T12:45:55.259Z,28.80
2018-05-06T12:51:10.598Z,28.70
2018-05-06T12:56:19.474Z,28.70
2018-05-06T13:01:37.565Z,28.70
2018-05-06T13:11:57.830Z,28.70
2018-05-06T13:17:06.472Z,28.70
2018-05-06T13:22:11.345Z,28.60
2018-05-06T13:32:34.588Z,28.50
2018-05-06T13:37:40.880Z,28.50
2018-05-06T13:48:12.958Z,28.30
2018-05-06T13:53:33.417Z,28.30
2018-05-06T13:58:39.635Z,28.10
2018-05-06T14:03:54.012Z,28.10
2018-05-06T14:09:04.701Z,28.10
2018-05-06T14:24:44.453Z,27.80
2018-05-06T14:29:49.509Z,27.70
2018-05-06T14:34:57.412Z,27.60
2018-05-06T14:40:02.058Z,27.50
2018-05-06T14:45:11.074Z,27.30
2018-05-06T14:50:19.383Z,27.10
2018-05-06T14:55:27.459Z,27.00
2018-05-06T15:00:35.026Z,26.90
2018-05-06T15:05:41.014Z,26.80
2018-05-06T15:10:48.910Z,26.70
2018-05-06T15:15:53.046Z,26.50
2018-05-06T15:21:01.058Z,26.50
2018-05-06T15:26:07.177Z,26.40
2018-05-06T15:36:22.875Z,26.20
2018-05-06T15:41:25.957Z,26.10
2018-05-06T15:46:29.003Z,26.00
2018-05-06T15:51:45.472Z,25.90
2018-05-06T16:07:48.719Z,25.60
2018-05-06T16:13:01.598Z,25.60
2018-05-06T16:18:09.961Z,25.50
2018-05-06T16:23:16.929Z,25.40
2018-05-06T16:28:25.433Z,25.20
2018-05-06T16:33:33.904Z,25.20
2018-05-06T16:38:40.259Z,25.10
2018-05-06T16:43:45.013Z,25.00
2018-05-06T16:48:53.011Z,24.90
2018-05-06T16:54:11.776Z,24.80
2018-05-06T16:59:17.609Z,24.60
2018-05-06T17:04:30.170Z,24.60
2018-05-06T17:09:46.185Z,24.40
2018-05-06T17:14:54.526Z,24.30
2018-05-06T17:19:59.280Z,24.20
2018-05-06T17:25:04.095Z,24.10
2018-05-06T17:30:08.071Z,24.00
2018-05-06T17:35:14.925Z,23.80
2018-05-06T17:45:28.115Z,23.60
2018-05-06T17:50:35.072Z,23.40
2018-05-06T18:00:52.144Z,23.20
2018-05-06T18:06:03.462Z,23.00
2018-05-06T18:11:21.482Z,22.90
2018-05-06T18:16:30.808Z,22.70
2018-05-06T18:21:37.942Z,22.60
2018-05-06T18:26:46.708Z,22.40
2018-05-06T18:36:58.474Z,22.20
2018-05-06T18:47:13.171Z,21.90
2018-05-06T18:52:30.768Z,21.70
2018-05-06T18:57:33.696Z,21.60
2018-05-06T19:09:01.955Z,21.30
2018-05-06T19:14:10.022Z,21.20
2018-05-06T19:19:16.369Z,21.00
2018-05-06T19:24:20.771Z,20.90
2018-05-06T19:29:26.525Z,20.80
2018-05-06T19:34:31.722Z,20.70
2018-05-06T19:39:35.712Z,20.50
2018-05-06T19:44:40.255Z,20.40
2018-05-06T19:49:50.320Z,20.30
2018-05-06T19:54:56.641Z,20.20
2018-05-06T20:00:03.666Z,19.90
2018-05-06T20:05:06.713Z,19.90
2018-05-06T20:10:10.897Z,19.80
2018-05-06T20:15:15.021Z,19.70
2018-05-06T20:20:18.173Z,19.60
2018-05-06T20:25:21.400Z,19.50
2018-05-06T20:30:29.518Z,19.40
2018-05-06T20:35:35.689Z,19.30
2018-05-06T20:40:39.141Z,19.20
2018-05-06T20:45:42.833Z,19.10
2018-05-06T20:50:49.088Z,19.00
2018-05-06T20:55:53.105Z,18.90
2018-05-06T21:00:57.978Z,18.80
2018-05-06T21:06:02.366Z,18.70
2018-05-06T21:11:07.076Z,18.60
2018-05-06T21:16:11.408Z,18.60
2018-05-06T21:21:17.959Z,18.40
2018-05-06T21:26:21.592Z,18.40
2018-05-06T21:31:27.066Z,18.30
2018-05-06T21:36:31.611Z,18.20
2018-05-06T21:41:52.934Z,18.10
2018-05-06T21:46:56.934Z,18.00
2018-05-06T21:57:51.037Z,17.70
2018-05-06T22:02:54.574Z,17.60
2018-05-06T22:07:59.074Z,17.50
2018-05-06T22:13:03.439Z,17.20
2018-05-06T22:18:06.936Z,17.20
2018-05-06T22:23:11.526Z,17.10
2018-05-06T22:28:14.739Z,17.00
2018-05-06T22:33:17.812Z,16.80
2018-05-06T22:38:21.466Z,16.70
2018-05-06T22:43:26.041Z,16.60
2018-05-06T22:48:31.941Z,16.50
2018-05-06T22:53:35.035Z,16.40
2018-05-06T22:58:43.029Z,16.20
2018-05-06T23:03:47.680Z,16.10
2018-05-06T23:08:55.285Z,16.10
2018-05-06T23:13:58.324Z,16.00
2018-05-06T23:19:04.076Z,15.90
2018-05-06T23:24:09.431Z,15.80
2018-05-06T23:29:12.544Z,15.70
2018-05-06T23:34:17.246Z,15.60
2018-05-06T23:39:20.541Z,15.50
2018-05-06T23:44:25.374Z,15.40
2018-05-06T23:49:28.848Z,15.30
2018-05-06T23:54:32.176Z,15.20
2018-05-06T23:59:34.934Z,15.10
